Latest Weather Observations for Geelong Racecourse

IDV60901

Issued at 7:31 am EST Thursday 27 April 2017 (issued every 10 minutes, with the page automatically refreshed every 10 minutes)

About weather observations | Map of Melbourne area stations | Latest observations for Melbourne area | Other Formats
Station Details ID: 087184 Name: GEELONG RACECOURSE Lat: -38.17 Lon: 144.38 Height: 12.9 m
Data from the previous 72 hours. | See also: Recent months at Geelong Racecourse
Date/Time
EST
Temp
°C
App
Temp
°C
Dew
Point
°C
Rel
Hum
%
Delta-T
°C
Wind Press
QNH
hPa
Press
MSL
hPa
Rain since
9am
mm
Dir  Spd
km/h
Gust
km/h
Spd
kts
Gust
kts
27/07:30am 7.8 6.3 6.7 93 0.5 SW 4 6 2 3 1022.6 1022.6 5.0
27/07:00am 7.8 4.9 6.6 92 0.5 WSW 11 19 6 10 1022.5 1022.5 4.6
27/06:30am 8.3 6.3 7.1 92 0.6 W 7 11 4 6 1022.1 1022.1 4.4
27/06:00am 8.4 6.1 7.3 93 0.5 WSW 9 13 5 7 1022.0 1022.0 4.2
27/05:30am 8.3 5.2 7.1 92 0.6 WSW 13 19 7 10 1021.5 1021.5 4.2
27/05:00am 8.4 6.1 7.3 93 0.5 W 9 13 5 7 1021.1 1021.1 4.2
27/04:30am 7.9 5.5 6.8 93 0.5 W 9 13 5 7 1020.9 1020.9 4.2
27/04:00am 7.1 4.9 6.0 93 0.5 WNW 7 9 4 5 1020.7 1020.7 4.2
27/03:30am 7.2 4.6 6.1 93 0.5 W 9 13 5 7 1020.7 1020.7 4.2
27/03:00am 8.3 4.8 7.2 93 0.5 W 15 24 8 13 1020.6 1020.6 4.2
27/02:30am 8.9 5.9 7.7 92 0.6 WSW 13 19 7 10 1020.8 1020.8 4.0
27/02:00am 8.3 5.5 7.1 92 0.6 WSW 11 17 6 9 1020.9 1020.9 4.0
27/01:30am 8.1 5.7 7.0 93 0.5 W 9 13 5 7 1020.6 1020.6 4.0
27/01:00am 8.4 5.7 7.2 92 0.6 W 11 19 6 10 1020.4 1020.4 4.0
27/12:30am 8.6 5.2 7.5 93 0.5 WSW 15 22 8 12 1020.3 1020.3 4.0
27/12:00am 8.1 4.9 7.0 93 0.5 WSW 13 17 7 9 1020.2 1020.2 4.0
 
Date/Time
EST
Temp
°C
App
Temp
°C
Dew
Point
°C
Rel
Hum
%
Delta-T
°C
Wind Press
QNH
hPa
Press
MSL
hPa
Rain since
9am
mm
Dir  Spd
km/h
Gust
km/h
Spd
kts
Gust
kts
26/11:30pm 7.5 5.3 6.4 93 0.5 W 7 9 4 5 1020.1 1020.1 4.0
26/11:00pm 8.2 3.7 7.1 93 0.5 SW 20 32 11 17 1020.3 1020.3 3.8
26/10:30pm 7.7 5.8 6.6 93 0.5 W 6 9 3 5 1020.1 1020.1 3.0
26/10:00pm 7.9 5.5 6.8 93 0.5 W 9 13 5 7 1020.0 1020.0 3.0
26/09:30pm 7.9 4.7 6.8 93 0.5 W 13 19 7 10 1020.0 1020.0 2.6
26/09:00pm 7.7 5.6 6.6 93 0.5 WSW 7 11 4 6 1019.5 1019.5 2.2
26/08:30pm 8.0 5.2 6.9 93 0.5 W 11 17 6 9 1019.3 1019.3 2.2
26/08:00pm 8.6 5.4 6.7 88 0.9 WSW 13 22 7 12 1019.1 1019.1 1.4
26/07:30pm 8.5 4.7 6.0 84 1.1 WSW 15 22 8 12 1018.5 1018.5 1.4
26/07:00pm 9.1 5.0 6.4 83 1.2 SW 17 33 9 18 1018.5 1018.5 1.4
26/06:30pm 8.6 4.7 5.2 79 1.5 W 15 22 8 12 1017.8 1017.8 1.4
26/06:00pm 9.1 4.3 5.7 79 1.5 WSW 20 32 11 17 1017.5 1017.5 1.4
26/05:30pm 9.8 4.1 5.0 72 2.2 SW 24 33 13 18 1017.3 1017.3 1.2
26/05:00pm 10.6 5.8 5.6 71 2.3 SW 20 30 11 16 1016.7 1016.7 1.2
26/04:30pm 10.5 5.6 5.1 69 2.5 WSW 20 30 11 16 1016.3 1016.3 1.2
26/04:00pm 10.2 3.9 5.6 73 2.1 SW 28 37 15 20 1016.2 1016.2 1.2
26/03:30pm 11.9 6.4 6.0 67 2.8 SW 24 39 13 21 1015.8 1015.8 1.2
26/03:00pm 11.1 5.6 6.0 71 2.4 SW 24 33 13 18 1015.3 1015.3 1.2
26/02:30pm 11.4 3.3 5.3 66 2.8 SSW 37 61 20 33 1015.2 1015.2 1.2
26/02:26pm 12.4 4.9 4.6 59 3.6 SW 33 61 18 33 1015.1 1015.1 1.2
26/02:00pm 12.4 4.9 3.6 55 3.9 SW 32 43 17 23 1014.7 1014.7 1.2
26/01:30pm 10.7 4.5 6.3 74 2.1 SSW 28 46 15 25 1014.6 1014.6 1.2
26/01:00pm 10.7 5.3 6.5 75 2.0 WSW 24 41 13 22 1014.4 1014.4 1.2
26/12:50pm 11.8 5.4 5.2 64 3.0 SW 28 46 15 25 1014.3 1014.3 1.2
26/12:30pm 11.9 4.9 6.2 68 2.7 SSW 32 50 17 27 1014.0 1014.0 1.2
26/12:00pm 11.6 5.3 5.9 68 2.7 SSW 28 41 15 22 1014.0 1014.0 1.2
26/11:45am 12.2 5.9 7.3 72 2.4 SW 30 48 16 26 1013.7 1013.7 1.2
26/11:30am 10.8 4.5 7.3 79 1.7 SW 30 46 16 25 1013.6 1013.6 1.0
26/11:12am 11.7 4.7 6.2 69 2.6 SSW 32 52 17 28 1013.2 1013.2 0.6
26/11:00am 12.3 4.7 5.9 65 3.0 SSW 35 52 19 28 1013.1 1013.1 0.6
26/10:55am 12.0 5.8 6.1 67 2.8 SSW 28 48 15 26 1012.9 1012.9 0.6
26/10:30am 10.8 6.4 6.4 74 2.1 SSW 19 26 10 14 1012.6 1012.6 0.6
26/10:03am 13.0 6.6 7.0 67 2.9 SSW 30 50 16 27 1012.0 1012.0 0.6
26/10:00am 12.8 6.1 7.3 69 2.7 SSW 32 50 17 27 1012.0 1012.0 0.6
26/09:35am 12.1 6.1 7.2 72 2.4 SSW 28 54 15 29 1011.7 1011.7 0.6
26/09:30am 12.2 7.1 7.7 74 2.2 SSW 24 35 13 19 1011.4 1011.4 0.6
26/09:00am 10.7 6.8 9.5 92 0.6 SW 20 26 11 14 1011.1 1011.1 10.0
26/08:30am 10.2 5.0 9.0 92 0.6 WSW 26 39 14 21 1010.6 1010.6 9.8
26/08:00am 9.7 6.6 8.8 94 0.4 W 15 24 8 13 1009.9 1009.9 9.6
26/07:30am 9.6 7.6 8.7 94 0.4 W 9 13 5 7 1009.2 1009.2 9.6
26/07:00am 9.5 5.6 8.6 94 0.4 SSW 19 32 10 17 1008.6 1008.6 9.6
26/06:30am 9.6 7.2 8.7 94 0.4 WSW 11 15 6 8 1007.9 1007.9 7.2
26/06:00am 10.0 6.2 9.1 94 0.4 WSW 19 32 10 17 1007.7 1007.7 6.4
26/05:30am 10.0 8.5 9.2 95 0.4 WNW 7 11 4 6 1006.6 1006.6 6.4
26/05:00am 10.1 8.8 9.3 95 0.4 WNW 6 7 3 4 1006.1 1006.1 6.2
26/04:30am 10.0 8.1 9.1 94 0.4 W 9 13 5 7 1005.8 1005.8 6.2
26/04:00am 10.3 7.7 9.4 94 0.5 WSW 13 20 7 11 1005.6 1005.6 5.2
26/03:30am 10.5 6.3 9.6 94 0.5 SW 22 35 12 19 1005.0 1005.0 4.4
26/03:00am 11.0 6.5 10.1 94 0.5 SW 24 33 13 18 1004.9 1004.9 3.6
26/02:30am 11.6 6.5 10.7 94 0.5 SSW 28 46 15 25 1004.1 1004.1 3.0
26/02:21am 12.1 8.3 11.0 93 0.6 WSW 22 44 12 24 1003.9 1003.9 3.0
26/02:00am 13.6 11.4 12.0 90 0.9 WNW 15 26 8 14 1003.1 1003.1 2.8
26/01:30am 13.6 11.5 12.3 92 0.7 NW 15 24 8 13 1003.0 1003.0 2.8
26/01:00am 13.3 11.1 12.2 93 0.6 NW 15 22 8 12 1003.4 1003.4 2.8
26/12:30am 13.4 11.3 12.3 93 0.6 NW 15 28 8 15 1003.7 1003.7 2.8
26/12:00am 12.9 10.7 12.0 94 0.5 NW 15 20 8 11 1004.2 1004.2 2.8
 
Date/Time
EST
Temp
°C
App
Temp
°C
Dew
Point
°C
Rel
Hum
%
Delta-T
°C
Wind Press
QNH
hPa
Press
MSL
hPa
Rain since
9am
mm
Dir  Spd
km/h
Gust
km/h
Spd
kts
Gust
kts
25/11:30pm 13.0 10.4 12.1 94 0.5 WNW 17 24 9 13 1004.4 1004.4 2.8
25/11:00pm 13.1 10.9 12.2 94 0.5 WNW 15 22 8 12 1004.5 1004.5 2.8
25/10:30pm 13.2 11.5 12.3 94 0.5 WNW 13 22 7 12 1004.6 1004.6 2.8
25/10:00pm 13.6 12.0 12.7 94 0.5 WNW 13 22 7 12 1005.0 1005.0 2.8
25/09:30pm 14.1 11.8 13.0 93 0.6 WNW 17 24 9 13 1005.2 1005.2 2.8
25/09:00pm 14.2 12.0 13.2 94 0.6 WNW 17 26 9 14 1005.5 1005.5 2.8
25/08:30pm 14.5 12.7 13.4 93 0.6 NW 15 20 8 11 1005.7 1005.7 2.8
25/08:00pm 15.7 15.9 14.6 93 0.6 N 7 9 4 5 1004.9 1004.9 1.2
25/07:30pm 15.1 15.2 14.0 93 0.6 N 6 9 3 5 1005.0 1005.0 1.2
25/07:00pm 14.3 15.3 13.2 93 0.6 CALM 0 0 0 0 1005.2 1005.2 1.2
25/06:30pm 14.7 14.9 12.9 89 1.0 N 4 6 2 3 1005.3 1005.3 1.2
25/06:00pm 16.0 15.7 12.7 81 1.8 NNW 6 7 3 4 1005.6 1005.6 1.2
25/05:30pm 16.8 16.1 12.1 74 2.6 NW 7 11 4 6 1005.7 1005.7 1.2
25/05:00pm 18.0 16.6 12.2 69 3.2 NW 11 17 6 9 1006.0 1006.0 1.2
25/04:30pm 18.5 16.9 11.6 64 3.8 NW 11 17 6 9 1006.1 1006.1 1.2
25/04:00pm 18.1 18.3 14.2 78 2.2 S 6 15 3 8 1006.3 1006.3 1.2
25/03:30pm 18.1 19.1 15.4 84 1.6 ENE 4 6 2 3 1006.2 1006.2 1.2
25/03:00pm 17.2 18.0 15.9 92 0.8 S 6 7 3 4 1006.4 1006.4 1.2
25/02:30pm 17.4 17.4 15.2 87 1.3 SW 9 15 5 8 1006.7 1006.7 1.2
25/02:00pm 17.9 16.5 13.4 75 2.5 WSW 13 22 7 12 1006.9 1006.9 1.2
25/01:30pm 17.6 18.0 16.3 92 0.8 S 9 17 5 9 1006.9 1006.9 1.2
25/01:00pm 17.1 17.4 16.0 93 0.7 S 9 15 5 8 1007.3 1007.3 1.2
25/12:30pm 16.5 16.6 15.5 94 0.6 S 9 15 5 8 1007.7 1007.7 1.2
25/12:00pm 16.3 15.5 15.2 93 0.6 SSW 13 19 7 10 1008.0 1008.0 1.2
25/11:30am 17.0 16.2 16.2 95 0.5 W 15 24 8 13 1008.2 1008.2 1.2
25/11:00am 16.1 16.6 15.5 96 0.3 WSW 7 13 4 7 1008.4 1008.4 1.2
25/10:30am 15.6 16.1 15.0 96 0.3 SW 6 7 3 4 1008.3 1008.3 1.0
25/10:00am 15.8 15.8 15.2 96 0.3 WSW 9 15 5 8 1008.5 1008.5 0.0
25/09:30am 15.5 15.4 14.9 96 0.3 SW 9 17 5 9 1008.3 1008.3 0.0
25/09:00am 15.4 15.3 14.9 97 0.3 SW 9 15 5 8 1008.2 1008.2 44.2
25/08:30am 15.4 15.7 14.9 97 0.3 WSW 7 11 4 6 1008.1 1008.1 44.2
25/08:00am 15.3 15.1 14.8 97 0.3 W 9 15 5 8 1007.9 1007.9 44.0
25/07:30am 15.2 15.0 14.7 97 0.3 W 9 13 5 7 1007.5 1007.5 44.0
25/07:00am 15.3 13.6 14.8 97 0.3 WSW 17 24 9 13 1007.2 1007.2 44.0
25/06:30am 15.8 16.8 15.3 97 0.3 WNW 4 6 2 3 1006.8 1006.8 44.0
25/06:00am 15.7 16.6 15.2 97 0.3 W 4 6 2 3 1006.6 1006.6 44.0
25/05:30am 15.7 16.3 15.2 97 0.3 N 6 9 3 5 1006.6 1006.6 43.8
25/05:00am 15.8 16.8 15.3 97 0.3 NNW 4 7 2 4 1006.7 1006.7 43.4
25/04:30am 15.9 16.9 15.4 97 0.3 NNW 4 4 2 2 1006.7 1006.7 43.4
25/04:00am 15.8 17.5 15.3 97 0.3 CALM 0 0 0 0 1006.7 1006.7 43.2
25/03:30am 15.7 17.4 15.2 97 0.3 CALM 0 0 0 0 1007.1 1007.1 43.2
25/03:00am 15.6 17.3 15.1 97 0.3 CALM 0 0 0 0 1007.6 1007.6 43.0
25/02:30am 15.7 17.4 15.2 97 0.3 CALM 0 0 0 0 1008.2 1008.2 43.0
25/02:00am 15.7 17.4 15.2 97 0.3 CALM 0 0 0 0 1008.6 1008.6 43.0
25/01:30am 15.6 17.3 15.1 97 0.3 CALM 0 0 0 0 1008.9 1008.9 43.0
25/01:00am 15.7 16.6 15.2 97 0.3 SE 4 6 2 3 1009.5 1009.5 43.0
25/12:30am 15.7 16.3 15.2 97 0.3 SE 6 7 3 4 1010.0 1010.0 42.6
25/12:00am 15.5 15.4 15.0 97 0.3 S 9 11 5 6 1010.5 1010.5 42.4
 
Date/Time
EST
Temp
°C
App
Temp
°C
Dew
Point
°C
Rel
Hum
%
Delta-T
°C
Wind Press
QNH
hPa
Press
MSL
hPa
Rain since
9am
mm
Dir  Spd
km/h
Gust
km/h
Spd
kts
Gust
kts
24/11:30pm 15.8 16.8 15.3 97 0.3 SSW 4 7 2 4 1011.5 1011.5 42.0
24/11:00pm 16.0 16.7 15.5 97 0.3 SE 6 9 3 5 1012.2 1012.2 37.8
24/10:30pm 16.1 16.6 15.5 96 0.3 SSW 7 13 4 7 1012.1 1012.1 32.0
24/10:00pm 16.0 16.1 15.4 96 0.3 S 9 13 5 7 1011.8 1011.8 27.6
24/09:30pm 16.0 16.4 15.4 96 0.3 SSE 7 9 4 5 1011.9 1011.9 27.2
24/09:00pm 15.9 16.3 15.3 96 0.3 SSE 7 11 4 6 1012.2 1012.2 27.2
24/08:30pm 15.9 15.9 15.3 96 0.3 SSE 9 13 5 7 1012.7 1012.7 27.0
24/08:00pm 16.0 16.1 15.4 96 0.3 SE 9 15 5 8 1013.3 1013.3 26.6
24/07:30pm 16.2 16.0 15.6 96 0.4 SE 11 17 6 9 1014.0 1014.0 24.4
24/07:00pm 15.9 14.8 15.3 96 0.3 SW 15 20 8 11 1014.5 1014.5 20.0
24/06:32pm 15.8 12.5 15.0 95 0.5 W 26 50 14 27 1014.6 1014.6 12.6
24/06:30pm 15.7 12.7 14.9 95 0.5 W 24 50 13 27 1014.7 1014.7 10.4
24/06:28pm 15.8 13.6 15.0 95 0.5 WSW 20 50 11 27 1014.3 1014.3 5.4
24/06:00pm 16.9 16.8 16.1 95 0.5 SE 11 19 6 10 1013.3 1013.3 3.4
24/05:30pm 17.5 17.6 16.5 94 0.6 SSE 11 19 6 10 1013.6 1013.6 2.8
24/05:00pm 18.0 18.6 16.9 93 0.7 SSE 9 17 5 9 1013.6 1013.6 0.0
24/04:30pm 18.3 18.6 17.1 93 0.7 SE 11 15 6 8 1013.8 1013.8 0.0
24/04:00pm 18.6 19.1 17.4 93 0.7 SE 11 17 6 9 1014.2 1014.2 0.0
24/03:30pm 18.9 19.5 17.6 92 0.8 SSE 11 19 6 10 1014.5 1014.5 0.0
24/03:00pm 20.1 20.6 18.4 90 1.1 SSE 13 19 7 10 1015.0 1015.0 0.0
24/02:30pm 21.0 22.9 16.8 77 2.6 SSW 2 6 1 3 1015.1 1015.1 0.0
24/02:00pm 21.1 24.0 18.3 84 1.7 CALM 0 0 0 0 1015.6 1015.6 0.0
24/01:30pm 20.6 23.3 17.8 84 1.7 CALM 0 4 0 2 1016.1 1016.1 0.0
24/01:00pm 21.1 22.9 18.3 84 1.7 NE 6 7 3 4 1016.6 1016.6 0.0
24/12:30pm 21.0 22.8 18.2 84 1.7 NE 6 9 3 5 1017.3 1017.3 0.0
24/12:00pm 20.4 21.8 17.4 83 1.8 NNE 6 9 3 5 1017.8 1017.8 0.0
24/11:30am 19.5 21.3 18.2 92 0.8 N 6 7 3 4 1018.5 1018.5 0.0
24/11:00am 19.4 20.9 18.1 92 0.8 NE 7 13 4 7 1018.8 1018.8 0.0
24/10:30am 17.8 18.7 16.7 93 0.7 NE 7 9 4 5 1019.2 1019.2 0.0
24/10:00am 17.9 19.1 16.9 94 0.6 NE 6 9 3 5 1019.7 1019.7 0.0
24/09:30am 17.3 18.4 16.5 95 0.5 NE 6 9 3 5 1020.1 1020.1 0.0
24/09:00am 16.6 18.6 16.0 96 0.4 CALM 0 0 0 0 1020.4 1020.4 0.0
24/08:30am 15.7 17.4 15.1 96 0.3 CALM 0 0 0 0 1020.6 1020.6 0.0
24/08:00am 15.3 16.8 14.7 96 0.3 CALM 0 0 0 0 1020.7 1020.7 0.0

Latest Capital City Observations: Canberra | Sydney | Melbourne | Brisbane | Adelaide | Perth | Hobart | Darwin

Other Formats:

Comma delimited format used in spreadsheet applications
http://www.bom.gov.au/fwo/IDV60901/IDV60901.94857.axf

JavaScript Object Notation format (JSON) in row-major order
http://www.bom.gov.au/fwo/IDV60901/IDV60901.94857.json